sensor_id;sensor_type;location;lat;lon;timestamp;P1;durP1;ratioP1;P2;durP2;ratioP2
29812;SDS011;16707;48.106;11.548;2023-07-29T00:01:11;4.07;;;3.42;;
29812;SDS011;16707;48.106;11.548;2023-07-29T00:03:38;4.88;;;3.33;;
29812;SDS011;16707;48.106;11.548;2023-07-29T00:06:05;4.88;;;3.50;;
29812;SDS011;16707;48.106;11.548;2023-07-29T00:08:33;4.55;;;3.17;;
29812;SDS011;16707;48.106;11.548;2023-07-29T00:10:59;5.80;;;3.53;;
29812;SDS011;16707;48.106;11.548;2023-07-29T00:13:28;4.60;;;3.20;;
29812;SDS011;16707;48.106;11.548;2023-07-29T00:15:55;5.70;;;3.50;;
29812;SDS011;16707;48.106;11.548;2023-07-29T00:18:22;4.35;;;3.22;;
29812;SDS011;16707;48.106;11.548;2023-07-29T00:20:49;3.22;;;2.90;;
29812;SDS011;16707;48.106;11.548;2023-07-29T00:23:16;3.88;;;2.67;;
29812;SDS011;16707;48.106;11.548;2023-07-29T00:25:45;5.15;;;2.85;;
29812;SDS011;16707;48.106;11.548;2023-07-29T00:28:12;4.35;;;3.10;;
29812;SDS011;16707;48.106;11.548;2023-07-29T00:30:40;3.80;;;2.92;;
29812;SDS011;16707;48.106;11.548;2023-07-29T00:33:08;4.10;;;2.90;;
29812;SDS011;16707;48.106;11.548;2023-07-29T00:35:35;4.60;;;3.03;;
29812;SDS011;16707;48.106;11.548;2023-07-29T00:38:02;3.95;;;3.00;;
29812;SDS011;16707;48.106;11.548;2023-07-29T00:40:29;4.05;;;3.13;;
29812;SDS011;16707;48.106;11.548;2023-07-29T00:42:57;5.10;;;3.47;;
29812;SDS011;16707;48.106;11.548;2023-07-29T00:45:24;10.15;;;4.20;;
29812;SDS011;16707;48.106;11.548;2023-07-29T00:47:54;8.07;;;3.85;;
29812;SDS011;16707;48.106;11.548;2023-07-29T00:50:21;6.20;;;3.75;;
29812;SDS011;16707;48.106;11.548;2023-07-29T00:52:49;6.72;;;4.15;;
29812;SDS011;16707;48.106;11.548;2023-07-29T00:55:16;4.85;;;3.45;;
29812;SDS011;16707;48.106;11.548;2023-07-29T00:57:43;4.95;;;3.17;;
29812;SDS011;16707;48.106;11.548;2023-07-29T01:00:13;5.07;;;3.10;;
29812;SDS011;16707;48.106;11.548;2023-07-29T01:02:41;3.33;;;2.80;;
29812;SDS011;16707;48.106;11.548;2023-07-29T01:05:11;3.90;;;2.83;;
29812;SDS011;16707;48.106;11.548;2023-07-29T01:07:42;3.65;;;2.70;;
29812;SDS011;16707;48.106;11.548;2023-07-29T01:10:26;3.95;;;2.58;;
29812;SDS011;16707;48.106;11.548;2023-07-29T01:13:05;4.05;;;2.88;;
29812;SDS011;16707;48.106;11.548;2023-07-29T01:15:42;3.22;;;2.53;;
29812;SDS011;16707;48.106;11.548;2023-07-29T01:18:15;4.13;;;2.85;;
29812;SDS011;16707;48.106;11.548;2023-07-29T01:20:50;3.38;;;2.97;;
29812;SDS011;16707;48.106;11.548;2023-07-29T01:23:24;5.05;;;3.03;;
29812;SDS011;16707;48.106;11.548;2023-07-29T01:25:51;4.20;;;2.97;;
29812;SDS011;16707;48.106;11.548;2023-07-29T01:28:18;4.75;;;2.90;;
29812;SDS011;16707;48.106;11.548;2023-07-29T01:30:45;3.95;;;3.08;;
29812;SDS011;16707;48.106;11.548;2023-07-29T01:33:20;4.70;;;2.67;;
29812;SDS011;16707;48.106;11.548;2023-07-29T01:35:52;3.20;;;2.70;;
29812;SDS011;16707;48.106;11.548;2023-07-29T01:38:29;4.40;;;2.83;;
29812;SDS011;16707;48.106;11.548;2023-07-29T01:41:00;5.05;;;3.22;;
29812;SDS011;16707;48.106;11.548;2023-07-29T01:43:28;4.30;;;3.13;;
29812;SDS011;16707;48.106;11.548;2023-07-29T01:45:56;4.32;;;2.70;;
29812;SDS011;16707;48.106;11.548;2023-07-29T01:48:23;4.25;;;2.83;;
29812;SDS011;16707;48.106;11.548;2023-07-29T01:50:52;4.18;;;3.03;;
29812;SDS011;16707;48.106;11.548;2023-07-29T01:53:19;4.35;;;3.28;;
29812;SDS011;16707;48.106;11.548;2023-07-29T01:55:47;5.00;;;3.00;;
29812;SDS011;16707;48.106;11.548;2023-07-29T01:58:15;5.35;;;3.38;;
29812;SDS011;16707;48.106;11.548;2023-07-29T02:00:42;4.10;;;3.25;;
29812;SDS011;16707;48.106;11.548;2023-07-29T02:03:08;4.50;;;3.30;;
29812;SDS011;16707;48.106;11.548;2023-07-29T02:05:35;4.65;;;3.03;;
29812;SDS011;16707;48.106;11.548;2023-07-29T02:08:02;4.32;;;2.85;;
29812;SDS011;16707;48.106;11.548;2023-07-29T02:10:29;4.85;;;3.10;;
29812;SDS011;16707;48.106;11.548;2023-07-29T02:12:58;4.47;;;3.08;;
29812;SDS011;16707;48.106;11.548;2023-07-29T02:15:25;4.97;;;3.60;;
29812;SDS011;16707;48.106;11.548;2023-07-29T02:17:52;4.00;;;3.33;;
29812;SDS011;16707;48.106;11.548;2023-07-29T02:20:19;3.65;;;3.13;;
29812;SDS011;16707;48.106;11.548;2023-07-29T02:22:46;3.53;;;2.78;;
29812;SDS011;16707;48.106;11.548;2023-07-29T02:25:14;5.22;;;3.10;;
29812;SDS011;16707;48.106;11.548;2023-07-29T02:27:41;4.00;;;3.20;;
29812;SDS011;16707;48.106;11.548;2023-07-29T02:30:10;4.45;;;2.80;;
29812;SDS011;16707;48.106;11.548;2023-07-29T02:32:37;4.15;;;2.55;;
29812;SDS011;16707;48.106;11.548;2023-07-29T02:35:05;3.28;;;2.72;;
29812;SDS011;16707;48.106;11.548;2023-07-29T02:37:32;5.55;;;2.95;;
29812;SDS011;16707;48.106;11.548;2023-07-29T02:39:59;5.13;;;2.85;;
29812;SDS011;16707;48.106;11.548;2023-07-29T02:42:26;4.03;;;2.97;;
29812;SDS011;16707;48.106;11.548;2023-07-29T02:44:53;6.68;;;3.10;;
29812;SDS011;16707;48.106;11.548;2023-07-29T02:47:22;3.55;;;2.97;;
29812;SDS011;16707;48.106;11.548;2023-07-29T02:49:48;4.97;;;3.25;;
29812;SDS011;16707;48.106;11.548;2023-07-29T02:52:15;3.42;;;2.67;;
29812;SDS011;16707;48.106;11.548;2023-07-29T02:54:42;3.35;;;2.70;;
29812;SDS011;16707;48.106;11.548;2023-07-29T02:57:09;4.57;;;2.72;;
29812;SDS011;16707;48.106;11.548;2023-07-29T02:59:36;4.60;;;3.00;;
29812;SDS011;16707;48.106;11.548;2023-07-29T03:02:03;4.88;;;3.33;;
29812;SDS011;16707;48.106;11.548;2023-07-29T03:04:31;4.85;;;3.10;;
29812;SDS011;16707;48.106;11.548;2023-07-29T03:06:58;3.65;;;2.90;;
29812;SDS011;16707;48.106;11.548;2023-07-29T03:09:26;3.63;;;2.75;;
29812;SDS011;16707;48.106;11.548;2023-07-29T03:11:53;5.55;;;3.10;;
29812;SDS011;16707;48.106;11.548;2023-07-29T03:14:20;4.50;;;2.80;;
29812;SDS011;16707;48.106;11.548;2023-07-29T03:16:47;4.30;;;2.80;;
29812;SDS011;16707;48.106;11.548;2023-07-29T03:19:14;3.40;;;2.80;;
29812;SDS011;16707;48.106;11.548;2023-07-29T03:21:43;3.58;;;2.65;;
29812;SDS011;16707;48.106;11.548;2023-07-29T03:24:10;5.07;;;2.72;;
29812;SDS011;16707;48.106;11.548;2023-07-29T03:26:37;3.97;;;2.80;;
29812;SDS011;16707;48.106;11.548;2023-07-29T03:29:04;4.55;;;3.05;;
29812;SDS011;16707;48.106;11.548;2023-07-29T03:31:31;3.63;;;2.80;;
29812;SDS011;16707;48.106;11.548;2023-07-29T03:33:58;4.68;;;2.92;;
29812;SDS011;16707;48.106;11.548;2023-07-29T03:36:25;4.57;;;2.83;;
29812;SDS011;16707;48.106;11.548;2023-07-29T03:38:54;3.60;;;2.45;;
29812;SDS011;16707;48.106;11.548;2023-07-29T03:41:21;3.97;;;2.45;;
29812;SDS011;16707;48.106;11.548;2023-07-29T03:43:48;3.42;;;2.38;;
29812;SDS011;16707;48.106;11.548;2023-07-29T03:46:15;3.47;;;2.40;;
29812;SDS011;16707;48.106;11.548;2023-07-29T03:48:44;3.45;;;2.45;;
29812;SDS011;16707;48.106;11.548;2023-07-29T03:51:11;4.13;;;2.50;;
29812;SDS011;16707;48.106;11.548;2023-07-29T03:53:38;5.70;;;2.33;;
29812;SDS011;16707;48.106;11.548;2023-07-29T03:56:07;3.25;;;2.33;;
29812;SDS011;16707;48.106;11.548;2023-07-29T03:58:34;3.05;;;2.40;;
29812;SDS011;16707;48.106;11.548;2023-07-29T04:01:00;3.67;;;2.20;;
29812;SDS011;16707;48.106;11.548;2023-07-29T04:03:27;4.45;;;2.58;;
29812;SDS011;16707;48.106;11.548;2023-07-29T04:05:54;2.55;;;2.30;;
29812;SDS011;16707;48.106;11.548;2023-07-29T04:08:21;3.33;;;2.20;;
29812;SDS011;16707;48.106;11.548;2023-07-29T04:10:49;3.25;;;2.08;;
29812;SDS011;16707;48.106;11.548;2023-07-29T04:13:17;3.92;;;2.28;;
29812;SDS011;16707;48.106;11.548;2023-07-29T04:15:44;2.67;;;2.17;;
29812;SDS011;16707;48.106;11.548;2023-07-29T04:18:11;2.75;;;2.10;;
29812;SDS011;16707;48.106;11.548;2023-07-29T04:20:38;4.05;;;2.33;;
29812;SDS011;16707;48.106;11.548;2023-07-29T04:23:05;3.25;;;2.17;;
29812;SDS011;16707;48.106;11.548;2023-07-29T04:25:32;3.33;;;1.90;;
29812;SDS011;16707;48.106;11.548;2023-07-29T04:27:59;2.85;;;2.10;;
29812;SDS011;16707;48.106;11.548;2023-07-29T04:30:29;3.85;;;2.20;;
29812;SDS011;16707;48.106;11.548;2023-07-29T04:32:56;2.40;;;1.92;;
29812;SDS011;16707;48.106;11.548;2023-07-29T04:35:23;2.60;;;2.05;;
29812;SDS011;16707;48.106;11.548;2023-07-29T04:37:50;2.92;;;1.90;;
29812;SDS011;16707;48.106;11.548;2023-07-29T04:40:17;3.33;;;2.20;;
29812;SDS011;16707;48.106;11.548;2023-07-29T04:42:44;3.28;;;2.30;;
29812;SDS011;16707;48.106;11.548;2023-07-29T04:45:12;2.22;;;1.88;;
29812;SDS011;16707;48.106;11.548;2023-07-29T04:47:40;3.47;;;1.92;;
29812;SDS011;16707;48.106;11.548;2023-07-29T04:50:07;4.63;;;2.30;;
29812;SDS011;16707;48.106;11.548;2023-07-29T04:52:35;3.08;;;1.70;;
29812;SDS011;16707;48.106;11.548;2023-07-29T04:55:03;2.30;;;1.83;;
29812;SDS011;16707;48.106;11.548;2023-07-29T04:57:30;2.67;;;1.40;;
29812;SDS011;16707;48.106;11.548;2023-07-29T04:59:57;1.70;;;1.40;;
29812;SDS011;16707;48.106;11.548;2023-07-29T05:02:24;2.25;;;1.60;;
29812;SDS011;16707;48.106;11.548;2023-07-29T05:04:53;2.80;;;1.80;;
29812;SDS011;16707;48.106;11.548;2023-07-29T05:07:20;3.10;;;1.45;;
29812;SDS011;16707;48.106;11.548;2023-07-29T05:09:47;2.10;;;1.48;;
29812;SDS011;16707;48.106;11.548;2023-07-29T05:12:14;1.83;;;1.35;;
29812;SDS011;16707;48.106;11.548;2023-07-29T05:14:41;1.58;;;1.20;;
29812;SDS011;16707;48.106;11.548;2023-07-29T05:17:08;2.28;;;1.40;;
29812;SDS011;16707;48.106;11.548;2023-07-29T05:19:35;2.40;;;1.20;;
29812;SDS011;16707;48.106;11.548;2023-07-29T05:22:04;2.22;;;1.23;;
29812;SDS011;16707;48.106;11.548;2023-07-29T05:24:31;2.08;;;1.30;;
29812;SDS011;16707;48.106;11.548;2023-07-29T05:26:58;1.40;;;1.17;;
29812;SDS011;16707;48.106;11.548;2023-07-29T05:29:25;1.40;;;1.10;;
29812;SDS011;16707;48.106;11.548;2023-07-29T05:31:52;1.85;;;1.27;;
29812;SDS011;16707;48.106;11.548;2023-07-29T05:34:19;1.27;;;1.17;;
29812;SDS011;16707;48.106;11.548;2023-07-29T05:36:46;1.65;;;1.20;;
29812;SDS011;16707;48.106;11.548;2023-07-29T05:39:14;3.03;;;1.25;;
29812;SDS011;16707;48.106;11.548;2023-07-29T05:41:41;1.70;;;1.30;;
29812;SDS011;16707;48.106;11.548;2023-07-29T05:44:08;2.10;;;1.38;;
29812;SDS011;16707;48.106;11.548;2023-07-29T05:46:35;1.90;;;1.20;;
29812;SDS011;16707;48.106;11.548;2023-07-29T05:49:02;1.42;;;1.25;;
29812;SDS011;16707;48.106;11.548;2023-07-29T05:51:29;1.40;;;1.23;;
29812;SDS011;16707;48.106;11.548;2023-07-29T05:53:56;2.63;;;1.35;;
29812;SDS011;16707;48.106;11.548;2023-07-29T05:56:24;1.50;;;1.20;;
29812;SDS011;16707;48.106;11.548;2023-07-29T05:58:51;1.58;;;1.27;;
29812;SDS011;16707;48.106;11.548;2023-07-29T06:01:18;2.17;;;1.27;;
29812;SDS011;16707;48.106;11.548;2023-07-29T06:03:46;2.25;;;1.63;;
29812;SDS011;16707;48.106;11.548;2023-07-29T06:06:13;2.58;;;1.73;;
29812;SDS011;16707;48.106;11.548;2023-07-29T06:08:40;4.10;;;1.73;;
29812;SDS011;16707;48.106;11.548;2023-07-29T06:11:07;2.80;;;1.50;;
29812;SDS011;16707;48.106;11.548;2023-07-29T06:13:35;4.55;;;1.77;;
29812;SDS011;16707;48.106;11.548;2023-07-29T06:16:03;3.67;;;1.52;;
29812;SDS011;16707;48.106;11.548;2023-07-29T06:18:30;4.65;;;1.85;;
29812;SDS011;16707;48.106;11.548;2023-07-29T06:20:57;2.60;;;1.55;;
29812;SDS011;16707;48.106;11.548;2023-07-29T06:23:24;1.58;;;1.45;;
29812;SDS011;16707;48.106;11.548;2023-07-29T06:25:51;4.15;;;1.50;;
29812;SDS011;16707;48.106;11.548;2023-07-29T06:28:18;1.80;;;1.33;;
29812;SDS011;16707;48.106;11.548;2023-07-29T06:30:46;2.83;;;1.50;;
29812;SDS011;16707;48.106;11.548;2023-07-29T06:33:13;3.22;;;1.73;;
29812;SDS011;16707;48.106;11.548;2023-07-29T06:35:41;2.65;;;1.40;;
29812;SDS011;16707;48.106;11.548;2023-07-29T06:38:08;1.50;;;1.40;;
29812;SDS011;16707;48.106;11.548;2023-07-29T06:40:35;1.50;;;1.20;;
29812;SDS011;16707;48.106;11.548;2023-07-29T06:43:02;1.75;;;1.30;;
29812;SDS011;16707;48.106;11.548;2023-07-29T06:45:29;1.60;;;1.50;;
29812;SDS011;16707;48.106;11.548;2023-07-29T06:47:57;2.20;;;1.50;;
29812;SDS011;16707;48.106;11.548;2023-07-29T06:50:24;2.45;;;1.50;;
29812;SDS011;16707;48.106;11.548;2023-07-29T06:52:51;3.03;;;1.90;;
29812;SDS011;16707;48.106;11.548;2023-07-29T06:55:18;2.00;;;1.40;;
29812;SDS011;16707;48.106;11.548;2023-07-29T06:57:45;2.20;;;1.60;;
29812;SDS011;16707;48.106;11.548;2023-07-29T07:00:12;3.33;;;1.70;;
29812;SDS011;16707;48.106;11.548;2023-07-29T07:02:39;2.10;;;1.50;;
29812;SDS011;16707;48.106;11.548;2023-07-29T07:05:08;5.32;;;1.90;;
29812;SDS011;16707;48.106;11.548;2023-07-29T07:07:35;3.60;;;2.05;;
29812;SDS011;16707;48.106;11.548;2023-07-29T07:10:03;3.83;;;2.00;;
29812;SDS011;16707;48.106;11.548;2023-07-29T07:12:31;3.22;;;1.95;;
29812;SDS011;16707;48.106;11.548;2023-07-29T07:14:58;3.08;;;1.88;;
29812;SDS011;16707;48.106;11.548;2023-07-29T07:17:26;2.50;;;1.65;;
29812;SDS011;16707;48.106;11.548;2023-07-29T07:19:53;3.33;;;2.10;;
29812;SDS011;16707;48.106;11.548;2023-07-29T07:22:22;4.28;;;2.28;;
29812;SDS011;16707;48.106;11.548;2023-07-29T07:24:49;2.25;;;1.80;;
29812;SDS011;16707;48.106;11.548;2023-07-29T07:27:16;3.17;;;1.77;;
29812;SDS011;16707;48.106;11.548;2023-07-29T07:29:43;2.97;;;1.95;;
29812;SDS011;16707;48.106;11.548;2023-07-29T07:32:10;3.58;;;1.75;;
29812;SDS011;16707;48.106;11.548;2023-07-29T07:34:37;3.35;;;1.90;;
29812;SDS011;16707;48.106;11.548;2023-07-29T07:37:04;3.30;;;2.17;;
29812;SDS011;16707;48.106;11.548;2023-07-29T07:39:33;3.50;;;2.17;;
29812;SDS011;16707;48.106;11.548;2023-07-29T07:42:00;2.83;;;1.70;;
29812;SDS011;16707;48.106;11.548;2023-07-29T07:44:27;2.50;;;1.80;;
29812;SDS011;16707;48.106;11.548;2023-07-29T07:46:54;3.58;;;2.00;;
29812;SDS011;16707;48.106;11.548;2023-07-29T07:49:21;2.45;;;1.67;;
29812;SDS011;16707;48.106;11.548;2023-07-29T07:51:48;4.35;;;1.98;;
29812;SDS011;16707;48.106;11.548;2023-07-29T07:54:15;3.50;;;2.10;;
29812;SDS011;16707;48.106;11.548;2023-07-29T07:56:47;4.03;;;1.67;;
29812;SDS011;16707;48.106;11.548;2023-07-29T07:59:16;3.30;;;1.88;;
29812;SDS011;16707;48.106;11.548;2023-07-29T08:01:49;4.40;;;2.13;;
29812;SDS011;16707;48.106;11.548;2023-07-29T08:04:17;3.97;;;1.70;;
29812;SDS011;16707;48.106;11.548;2023-07-29T08:06:47;2.15;;;1.80;;
29812;SDS011;16707;48.106;11.548;2023-07-29T08:09:17;3.08;;;1.88;;
29812;SDS011;16707;48.106;11.548;2023-07-29T08:11:44;2.25;;;1.75;;
29812;SDS011;16707;48.106;11.548;2023-07-29T08:14:14;3.65;;;1.98;;
29812;SDS011;16707;48.106;11.548;2023-07-29T08:16:41;2.05;;;1.80;;
29812;SDS011;16707;48.106;11.548;2023-07-29T08:19:08;3.22;;;1.90;;
29812;SDS011;16707;48.106;11.548;2023-07-29T08:21:35;2.20;;;1.90;;
29812;SDS011;16707;48.106;11.548;2023-07-29T08:24:02;3.13;;;1.75;;
29812;SDS011;16707;48.106;11.548;2023-07-29T08:26:29;2.90;;;2.10;;
29812;SDS011;16707;48.106;11.548;2023-07-29T08:28:56;2.55;;;1.90;;
29812;SDS011;16707;48.106;11.548;2023-07-29T08:31:25;2.88;;;2.30;;
29812;SDS011;16707;48.106;11.548;2023-07-29T08:33:52;4.85;;;2.17;;
29812;SDS011;16707;48.106;11.548;2023-07-29T08:36:19;4.20;;;2.25;;
29812;SDS011;16707;48.106;11.548;2023-07-29T08:38:46;3.50;;;2.38;;
29812;SDS011;16707;48.106;11.548;2023-07-29T08:41:13;3.00;;;1.83;;
29812;SDS011;16707;48.106;11.548;2023-07-29T08:43:43;2.92;;;2.00;;
29812;SDS011;16707;48.106;11.548;2023-07-29T08:46:18;5.32;;;2.13;;
29812;SDS011;16707;48.106;11.548;2023-07-29T08:48:47;2.40;;;1.95;;
29812;SDS011;16707;48.106;11.548;2023-07-29T08:51:15;2.90;;;1.90;;
29812;SDS011;16707;48.106;11.548;2023-07-29T08:53:43;2.67;;;1.83;;
29812;SDS011;16707;48.106;11.548;2023-07-29T08:56:10;3.47;;;1.90;;
29812;SDS011;16707;48.106;11.548;2023-07-29T08:58:38;4.63;;;2.08;;
29812;SDS011;16707;48.106;11.548;2023-07-29T09:01:06;2.83;;;1.98;;
29812;SDS011;16707;48.106;11.548;2023-07-29T09:03:33;2.20;;;2.00;;
29812;SDS011;16707;48.106;11.548;2023-07-29T09:06:01;2.25;;;1.88;;
29812;SDS011;16707;48.106;11.548;2023-07-29T09:08:29;3.38;;;2.10;;
29812;SDS011;16707;48.106;11.548;2023-07-29T09:10:57;2.50;;;2.03;;
29812;SDS011;16707;48.106;11.548;2023-07-29T09:13:24;3.00;;;1.90;;
29812;SDS011;16707;48.106;11.548;2023-07-29T09:15:54;2.20;;;1.88;;
29812;SDS011;16707;48.106;11.548;2023-07-29T09:18:22;2.67;;;1.90;;
29812;SDS011;16707;48.106;11.548;2023-07-29T09:20:49;3.08;;;2.08;;
29812;SDS011;16707;48.106;11.548;2023-07-29T09:23:18;2.33;;;1.90;;
29812;SDS011;16707;48.106;11.548;2023-07-29T09:25:46;3.20;;;2.30;;
29812;SDS011;16707;48.106;11.548;2023-07-29T09:28:14;3.17;;;2.20;;
29812;SDS011;16707;48.106;11.548;2023-07-29T09:30:42;3.97;;;2.63;;
29812;SDS011;16707;48.106;11.548;2023-07-29T09:33:11;2.47;;;2.10;;
29812;SDS011;16707;48.106;11.548;2023-07-29T09:35:38;2.38;;;2.05;;
29812;SDS011;16707;48.106;11.548;2023-07-29T09:38:06;3.03;;;2.40;;
29812;SDS011;16707;48.106;11.548;2023-07-29T09:40:38;2.28;;;2.00;;
29812;SDS011;16707;48.106;11.548;2023-07-29T09:43:06;2.88;;;2.00;;
29812;SDS011;16707;48.106;11.548;2023-07-29T09:45:35;2.92;;;2.38;;
29812;SDS011;16707;48.106;11.548;2023-07-29T09:48:03;3.92;;;2.60;;
29812;SDS011;16707;48.106;11.548;2023-07-29T09:50:34;4.00;;;2.45;;
29812;SDS011;16707;48.106;11.548;2023-07-29T09:53:01;2.75;;;2.10;;
29812;SDS011;16707;48.106;11.548;2023-07-29T09:55:29;2.58;;;2.08;;
29812;SDS011;16707;48.106;11.548;2023-07-29T09:58:01;2.22;;;1.83;;
29812;SDS011;16707;48.106;11.548;2023-07-29T10:00:32;2.92;;;2.08;;
29812;SDS011;16707;48.106;11.548;2023-07-29T10:02:59;4.80;;;2.50;;
29812;SDS011;16707;48.106;11.548;2023-07-29T10:05:27;3.45;;;2.65;;
29812;SDS011;16707;48.106;11.548;2023-07-29T10:07:55;2.50;;;2.05;;
29812;SDS011;16707;48.106;11.548;2023-07-29T10:10:23;3.50;;;2.20;;
29812;SDS011;16707;48.106;11.548;2023-07-29T10:12:50;3.83;;;2.20;;
29812;SDS011;16707;48.106;11.548;2023-07-29T10:15:19;3.30;;;2.40;;
29812;SDS011;16707;48.106;11.548;2023-07-29T10:17:47;2.90;;;2.50;;
29812;SDS011;16707;48.106;11.548;2023-07-29T10:20:16;2.70;;;2.47;;
29812;SDS011;16707;48.106;11.548;2023-07-29T10:22:43;2.90;;;2.08;;
29812;SDS011;16707;48.106;11.548;2023-07-29T10:25:15;4.80;;;2.70;;
29812;SDS011;16707;48.106;11.548;2023-07-29T10:27:44;3.50;;;2.55;;
29812;SDS011;16707;48.106;11.548;2023-07-29T10:30:16;3.55;;;2.35;;
29812;SDS011;16707;48.106;11.548;2023-07-29T10:32:45;3.15;;;2.28;;
29812;SDS011;16707;48.106;11.548;2023-07-29T10:35:12;4.03;;;1.90;;
29812;SDS011;16707;48.106;11.548;2023-07-29T10:37:40;3.50;;;2.42;;
29812;SDS011;16707;48.106;11.548;2023-07-29T10:40:08;3.55;;;2.50;;
29812;SDS011;16707;48.106;11.548;2023-07-29T10:42:37;2.53;;;2.00;;
29812;SDS011;16707;48.106;11.548;2023-07-29T10:45:17;3.33;;;2.55;;
29812;SDS011;16707;48.106;11.548;2023-07-29T10:47:47;2.85;;;2.17;;
29812;SDS011;16707;48.106;11.548;2023-07-29T10:50:17;2.60;;;2.40;;
29812;SDS011;16707;48.106;11.548;2023-07-29T10:52:48;5.30;;;2.25;;
29812;SDS011;16707;48.106;11.548;2023-07-29T10:55:24;2.92;;;2.40;;
29812;SDS011;16707;48.106;11.548;2023-07-29T10:57:54;3.70;;;2.72;;
29812;SDS011;16707;48.106;11.548;2023-07-29T11:00:32;3.30;;;2.65;;
29812;SDS011;16707;48.106;11.548;2023-07-29T11:03:02;2.55;;;2.00;;
29812;SDS011;16707;48.106;11.548;2023-07-29T11:05:41;3.95;;;2.30;;
29812;SDS011;16707;48.106;11.548;2023-07-29T11:08:17;3.55;;;2.63;;
29812;SDS011;16707;48.106;11.548;2023-07-29T11:11:02;3.78;;;2.72;;
29812;SDS011;16707;48.106;11.548;2023-07-29T11:13:32;3.28;;;2.30;;
29812;SDS011;16707;48.106;11.548;2023-07-29T11:16:00;2.40;;;2.17;;
29812;SDS011;16707;48.106;11.548;2023-07-29T11:18:30;2.90;;;2.60;;
29812;SDS011;16707;48.106;11.548;2023-07-29T11:20:59;3.47;;;2.38;;
29812;SDS011;16707;48.106;11.548;2023-07-29T11:23:28;2.95;;;2.25;;
29812;SDS011;16707;48.106;11.548;2023-07-29T11:25:57;2.22;;;1.70;;
29812;SDS011;16707;48.106;11.548;2023-07-29T11:28:25;1.95;;;1.83;;
29812;SDS011;16707;48.106;11.548;2023-07-29T11:30:54;2.83;;;1.67;;
29812;SDS011;16707;48.106;11.548;2023-07-29T11:33:22;2.30;;;1.60;;
29812;SDS011;16707;48.106;11.548;2023-07-29T11:35:52;2.40;;;2.00;;
29812;SDS011;16707;48.106;11.548;2023-07-29T11:38:19;2.22;;;1.35;;
29812;SDS011;16707;48.106;11.548;2023-07-29T11:40:55;1.98;;;1.67;;
29812;SDS011;16707;48.106;11.548;2023-07-29T11:43:24;2.55;;;1.83;;
29812;SDS011;16707;48.106;11.548;2023-07-29T11:45:51;1.90;;;1.70;;
29812;SDS011;16707;48.106;11.548;2023-07-29T11:48:25;2.53;;;1.60;;
29812;SDS011;16707;48.106;11.548;2023-07-29T11:50:55;2.33;;;1.70;;
29812;SDS011;16707;48.106;11.548;2023-07-29T11:53:22;2.08;;;1.80;;
29812;SDS011;16707;48.106;11.548;2023-07-29T11:55:54;3.10;;;1.70;;
29812;SDS011;16707;48.106;11.548;2023-07-29T11:58:21;1.92;;;1.73;;
29812;SDS011;16707;48.106;11.548;2023-07-29T12:00:48;1.75;;;1.50;;
29812;SDS011;16707;48.106;11.548;2023-07-29T12:03:16;1.90;;;1.50;;
29812;SDS011;16707;48.106;11.548;2023-07-29T12:05:43;2.45;;;1.55;;
29812;SDS011;16707;48.106;11.548;2023-07-29T12:08:12;3.22;;;1.90;;
29812;SDS011;16707;48.106;11.548;2023-07-29T12:10:39;2.90;;;1.77;;
29812;SDS011;16707;48.106;11.548;2023-07-29T12:13:07;2.42;;;2.03;;
29812;SDS011;16707;48.106;11.548;2023-07-29T12:15:35;2.08;;;1.73;;
29812;SDS011;16707;48.106;11.548;2023-07-29T12:18:05;3.90;;;1.95;;
29812;SDS011;16707;48.106;11.548;2023-07-29T12:20:32;2.03;;;1.70;;
29812;SDS011;16707;48.106;11.548;2023-07-29T12:22:59;2.70;;;2.05;;
29812;SDS011;16707;48.106;11.548;2023-07-29T12:25:29;3.75;;;2.08;;
29812;SDS011;16707;48.106;11.548;2023-07-29T12:27:56;2.85;;;2.13;;
29812;SDS011;16707;48.106;11.548;2023-07-29T12:30:28;2.55;;;2.15;;
29812;SDS011;16707;48.106;11.548;2023-07-29T12:32:55;3.90;;;2.22;;
29812;SDS011;16707;48.106;11.548;2023-07-29T12:35:22;3.13;;;2.10;;
29812;SDS011;16707;48.106;11.548;2023-07-29T12:37:59;2.85;;;2.53;;
29812;SDS011;16707;48.106;11.548;2023-07-29T12:40:28;2.45;;;2.00;;
29812;SDS011;16707;48.106;11.548;2023-07-29T12:42:55;2.78;;;2.08;;
29812;SDS011;16707;48.106;11.548;2023-07-29T12:45:23;3.53;;;2.30;;
29812;SDS011;16707;48.106;11.548;2023-07-29T12:47:52;3.03;;;2.15;;
29812;SDS011;16707;48.106;11.548;2023-07-29T12:50:19;2.83;;;2.20;;
29812;SDS011;16707;48.106;11.548;2023-07-29T12:52:46;3.03;;;2.22;;
29812;SDS011;16707;48.106;11.548;2023-07-29T12:55:13;2.42;;;2.03;;
29812;SDS011;16707;48.106;11.548;2023-07-29T12:57:42;2.75;;;2.15;;
29812;SDS011;16707;48.106;11.548;2023-07-29T13:00:09;3.35;;;2.42;;
29812;SDS011;16707;48.106;11.548;2023-07-29T13:02:38;4.40;;;2.47;;
29812;SDS011;16707;48.106;11.548;2023-07-29T13:05:05;2.72;;;2.30;;
29812;SDS011;16707;48.106;11.548;2023-07-29T13:07:36;3.15;;;2.13;;
29812;SDS011;16707;48.106;11.548;2023-07-29T13:10:03;3.00;;;2.30;;
29812;SDS011;16707;48.106;11.548;2023-07-29T13:12:30;4.15;;;2.28;;
29812;SDS011;16707;48.106;11.548;2023-07-29T13:14:59;4.55;;;2.92;;
29812;SDS011;16707;48.106;11.548;2023-07-29T13:17:26;6.53;;;3.28;;
29812;SDS011;16707;48.106;11.548;2023-07-29T13:19:54;5.90;;;3.17;;
29812;SDS011;16707;48.106;11.548;2023-07-29T13:22:21;5.55;;;3.22;;
29812;SDS011;16707;48.106;11.548;2023-07-29T13:24:48;5.55;;;4.13;;
29812;SDS011;16707;48.106;11.548;2023-07-29T13:27:15;4.97;;;3.83;;
29812;SDS011;16707;48.106;11.548;2023-07-29T13:29:42;3.90;;;3.25;;
29812;SDS011;16707;48.106;11.548;2023-07-29T13:32:11;4.65;;;3.10;;
29812;SDS011;16707;48.106;11.548;2023-07-29T13:34:38;5.22;;;3.47;;
29812;SDS011;16707;48.106;11.548;2023-07-29T13:37:05;4.93;;;3.45;;
29812;SDS011;16707;48.106;11.548;2023-07-29T13:39:32;5.60;;;3.55;;
29812;SDS011;16707;48.106;11.548;2023-07-29T13:41:59;4.13;;;3.72;;
29812;SDS011;16707;48.106;11.548;2023-07-29T13:44:26;5.65;;;4.05;;
29812;SDS011;16707;48.106;11.548;2023-07-29T13:46:53;5.43;;;3.65;;
29812;SDS011;16707;48.106;11.548;2023-07-29T13:49:21;5.30;;;4.28;;
29812;SDS011;16707;48.106;11.548;2023-07-29T13:51:48;5.07;;;3.85;;
29812;SDS011;16707;48.106;11.548;2023-07-29T13:54:15;5.25;;;4.00;;
29812;SDS011;16707;48.106;11.548;2023-07-29T13:56:42;4.85;;;3.50;;
29812;SDS011;16707;48.106;11.548;2023-07-29T13:59:09;4.03;;;3.17;;
29812;SDS011;16707;48.106;11.548;2023-07-29T14:01:36;4.53;;;3.03;;
29812;SDS011;16707;48.106;11.548;2023-07-29T14:04:03;3.78;;;3.28;;
29812;SDS011;16707;48.106;11.548;2023-07-29T14:06:32;5.82;;;3.80;;
29812;SDS011;16707;48.106;11.548;2023-07-29T14:08:59;4.07;;;3.30;;
29812;SDS011;16707;48.106;11.548;2023-07-29T14:11:26;4.68;;;3.10;;
29812;SDS011;16707;48.106;11.548;2023-07-29T14:13:53;4.38;;;2.95;;
29812;SDS011;16707;48.106;11.548;2023-07-29T14:16:20;4.13;;;3.60;;
29812;SDS011;16707;48.106;11.548;2023-07-29T14:18:47;4.97;;;3.50;;
29812;SDS011;16707;48.106;11.548;2023-07-29T14:21:14;4.45;;;3.25;;
29812;SDS011;16707;48.106;11.548;2023-07-29T14:23:42;4.25;;;3.15;;
29812;SDS011;16707;48.106;11.548;2023-07-29T14:26:09;6.10;;;3.05;;
29812;SDS011;16707;48.106;11.548;2023-07-29T14:28:36;4.30;;;3.47;;
29812;SDS011;16707;48.106;11.548;2023-07-29T14:31:03;5.32;;;3.67;;
29812;SDS011;16707;48.106;11.548;2023-07-29T14:33:30;4.30;;;3.05;;
29812;SDS011;16707;48.106;11.548;2023-07-29T14:35:57;4.88;;;4.38;;
29812;SDS011;16707;48.106;11.548;2023-07-29T14:38:24;5.32;;;3.28;;